sensor_id;sensor_type;location;lat;lon;timestamp;pressure;altitude;pressure_sealevel;temperature;humidity
11172;BME280;5642;50.830;12.082;2023-10-13T00:01:42;99298.91;;;19.70;51.58
11172;BME280;5642;50.830;12.082;2023-10-13T00:04:15;99332.91;;;19.90;51.50
11172;BME280;5642;50.830;12.082;2023-10-13T00:06:55;99310.50;;;19.82;51.71
11172;BME280;5642;50.830;12.082;2023-10-13T00:09:33;99326.88;;;19.88;51.62
11172;BME280;5642;50.830;12.082;2023-10-13T00:12:10;99331.00;;;19.92;51.87
11172;BME280;5642;50.830;12.082;2023-10-13T00:14:40;99252.59;;;19.49;51.75
11172;BME280;5642;50.830;12.082;2023-10-13T00:17:11;99317.59;;;19.94;51.93
11172;BME280;5642;50.830;12.082;2023-10-13T00:19:49;99285.44;;;19.73;51.71
11172;BME280;5642;50.830;12.082;2023-10-13T00:22:18;99300.84;;;19.81;51.82
11172;BME280;5642;50.830;12.082;2023-10-13T00:24:46;99316.34;;;19.87;51.70
11172;BME280;5642;50.830;12.082;2023-10-13T00:27:17;99299.66;;;19.72;51.96
11172;BME280;5642;50.830;12.082;2023-10-13T00:29:59;99295.94;;;19.62;51.83
11172;BME280;5642;50.830;12.082;2023-10-13T00:32:55;99292.94;;;19.41;52.08
11172;BME280;5642;50.830;12.082;2023-10-13T00:35:27;99308.25;;;19.38;52.15
11172;BME280;5642;50.830;12.082;2023-10-13T00:38:05;99309.31;;;19.23;52.50
11172;BME280;5642;50.830;12.082;2023-10-13T00:40:43;99313.53;;;19.12;52.16
11172;BME280;5642;50.830;12.082;2023-10-13T00:43:17;99309.72;;;19.04;52.40
11172;BME280;5642;50.830;12.082;2023-10-13T00:45:46;99318.50;;;18.92;52.54
11172;BME280;5642;50.830;12.082;2023-10-13T00:48:47;99323.38;;;18.85;52.50
11172;BME280;5642;50.830;12.082;2023-10-13T00:51:20;99329.22;;;18.90;52.47
11172;BME280;5642;50.830;12.082;2023-10-13T00:54:07;99336.03;;;18.94;52.43
11172;BME280;5642;50.830;12.082;2023-10-13T00:56:41;99336.47;;;19.01;52.30
11172;BME280;5642;50.830;12.082;2023-10-13T00:59:16;99337.84;;;19.06;52.18
11172;BME280;5642;50.830;12.082;2023-10-13T01:01:43;99338.19;;;19.14;52.25
11172;BME280;5642;50.830;12.082;2023-10-13T01:04:11;99311.13;;;19.09;51.96
11172;BME280;5642;50.830;12.082;2023-10-13T01:06:40;99322.78;;;19.20;52.00
11172;BME280;5642;50.830;12.082;2023-10-13T01:09:10;99329.28;;;19.28;52.02
11172;BME280;5642;50.830;12.082;2023-10-13T01:11:54;99324.19;;;19.25;51.89
11172;BME280;5642;50.830;12.082;2023-10-13T01:14:21;99293.72;;;19.18;52.20
11172;BME280;5642;50.830;12.082;2023-10-13T01:16:54;99296.38;;;19.18;52.31
11172;BME280;5642;50.830;12.082;2023-10-13T01:19:36;99309.75;;;19.16;52.37
11172;BME280;5642;50.830;12.082;2023-10-13T01:22:09;99304.84;;;19.10;52.25
11172;BME280;5642;50.830;12.082;2023-10-13T01:24:42;99323.97;;;19.15;52.41
11172;BME280;5642;50.830;12.082;2023-10-13T01:27:15;99281.56;;;18.89;52.48
11172;BME280;5642;50.830;12.082;2023-10-13T01:29:51;99322.03;;;19.05;52.75
11172;BME280;5642;50.830;12.082;2023-10-13T01:32:35;99311.25;;;18.81;52.76
11172;BME280;5642;50.830;12.082;2023-10-13T01:35:07;99320.72;;;18.85;52.96
11172;BME280;5642;50.830;12.082;2023-10-13T01:37:33;99313.66;;;18.71;52.87
11172;BME280;5642;50.830;12.082;2023-10-13T01:40:03;99302.31;;;18.55;52.96
11172;BME280;5642;50.830;12.082;2023-10-13T01:42:38;99317.31;;;18.56;53.20
11172;BME280;5642;50.830;12.082;2023-10-13T01:45:05;99316.00;;;18.49;53.29
11172;BME280;5642;50.830;12.082;2023-10-13T01:47:33;99316.41;;;18.43;53.38
11172;BME280;5642;50.830;12.082;2023-10-13T01:50:04;99310.66;;;18.36;53.29
11172;BME280;5642;50.830;12.082;2023-10-13T01:52:44;99297.63;;;18.19;53.46
11172;BME280;5642;50.830;12.082;2023-10-13T01:55:10;99304.03;;;18.29;53.41
11172;BME280;5642;50.830;12.082;2023-10-13T01:57:37;99304.03;;;18.29;53.26
11172;BME280;5642;50.830;12.082;2023-10-13T02:00:05;99252.72;;;18.04;53.36
11172;BME280;5642;50.830;12.082;2023-10-13T02:02:45;99313.75;;;18.43;53.02
11172;BME280;5642;50.830;12.082;2023-10-13T02:05:16;99308.88;;;18.50;53.02
11172;BME280;5642;50.830;12.082;2023-10-13T02:08:01;99318.25;;;18.55;53.14
11172;BME280;5642;50.830;12.082;2023-10-13T02:10:36;99304.25;;;18.53;53.03
11172;BME280;5642;50.830;12.082;2023-10-13T02:13:17;99304.91;;;18.57;53.12
11172;BME280;5642;50.830;12.082;2023-10-13T02:15:55;99289.28;;;18.52;52.93
11172;BME280;5642;50.830;12.082;2023-10-13T02:18:23;99313.66;;;18.71;52.97
11172;BME280;5642;50.830;12.082;2023-10-13T02:21:03;99317.84;;;18.75;52.94
11172;BME280;5642;50.830;12.082;2023-10-13T02:23:40;99307.00;;;18.78;52.73
11172;BME280;5642;50.830;12.082;2023-10-13T02:26:30;99308.50;;;18.83;53.05
11172;BME280;5642;50.830;12.082;2023-10-13T02:29:00;99283.44;;;18.74;52.93
11172;BME280;5642;50.830;12.082;2023-10-13T02:31:45;99301.84;;;18.90;53.05
11172;BME280;5642;50.830;12.082;2023-10-13T02:34:22;99302.91;;;19.00;53.10
11172;BME280;5642;50.830;12.082;2023-10-13T02:36:49;99309.50;;;19.07;53.04
11172;BME280;5642;50.830;12.082;2023-10-13T02:39:23;99300.50;;;19.09;53.02
11172;BME280;5642;50.830;12.082;2023-10-13T02:42:14;99294.94;;;19.12;52.97
11172;BME280;5642;50.830;12.082;2023-10-13T02:44:49;99292.28;;;19.12;53.03
11172;BME280;5642;50.830;12.082;2023-10-13T02:47:21;99300.69;;;19.19;52.73
11172;BME280;5642;50.830;12.082;2023-10-13T02:49:50;99288.28;;;19.20;52.73
11172;BME280;5642;50.830;12.082;2023-10-13T02:52:16;99223.47;;;18.84;52.96
11172;BME280;5642;50.830;12.082;2023-10-13T02:54:43;99270.22;;;19.12;52.91
11172;BME280;5642;50.830;12.082;2023-10-13T02:57:19;99290.50;;;19.26;53.00
11172;BME280;5642;50.830;12.082;2023-10-13T02:59:49;99283.50;;;19.25;53.08
11172;BME280;5642;50.830;12.082;2023-10-13T03:02:23;99284.56;;;19.22;52.83
11172;BME280;5642;50.830;12.082;2023-10-13T03:04:57;99280.09;;;19.23;52.88
11172;BME280;5642;50.830;12.082;2023-10-13T03:07:36;99266.41;;;19.16;53.06
11172;BME280;5642;50.830;12.082;2023-10-13T03:10:08;99278.59;;;19.18;53.21
11172;BME280;5642;50.830;12.082;2023-10-13T03:12:41;99273.72;;;19.12;53.13
11172;BME280;5642;50.830;12.082;2023-10-13T03:15:08;99264.28;;;19.08;53.23
11172;BME280;5642;50.830;12.082;2023-10-13T03:17:50;99275.41;;;19.13;53.05
11172;BME280;5642;50.830;12.082;2023-10-13T03:20:38;99230.28;;;18.88;53.25
11172;BME280;5642;50.830;12.082;2023-10-13T03:23:10;99265.88;;;19.11;53.44
11172;BME280;5642;50.830;12.082;2023-10-13T03:25:52;99243.31;;;18.91;53.48
11172;BME280;5642;50.830;12.082;2023-10-13T03:28:28;99256.84;;;19.01;53.27
11172;BME280;5642;50.830;12.082;2023-10-13T03:30:59;99255.56;;;18.94;53.30
11172;BME280;5642;50.830;12.082;2023-10-13T03:33:28;99261.94;;;19.04;53.27
11172;BME280;5642;50.830;12.082;2023-10-13T03:36:03;99260.09;;;19.04;53.49
11172;BME280;5642;50.830;12.082;2023-10-13T03:38:35;99222.53;;;18.85;53.47
11172;BME280;5642;50.830;12.082;2023-10-13T03:41:02;99253.84;;;19.05;53.38
11172;BME280;5642;50.830;12.082;2023-10-13T03:43:49;99259.28;;;19.04;53.69
11172;BME280;5642;50.830;12.082;2023-10-13T03:46:38;99236.03;;;18.95;53.70
11172;BME280;5642;50.830;12.082;2023-10-13T03:49:07;99246.31;;;18.99;53.80
11172;BME280;5642;50.830;12.082;2023-10-13T03:51:56;99224.03;;;18.89;53.71
11172;BME280;5642;50.830;12.082;2023-10-13T03:54:41;99248.22;;;18.97;53.58
11172;BME280;5642;50.830;12.082;2023-10-13T03:57:07;99215.94;;;18.91;53.51
11172;BME280;5642;50.830;12.082;2023-10-13T03:59:43;99229.34;;;19.02;53.69
11172;BME280;5642;50.830;12.082;2023-10-13T04:02:21;99239.53;;;19.08;53.51
11172;BME280;5642;50.830;12.082;2023-10-13T04:04:54;99199.06;;;18.92;53.64
11172;BME280;5642;50.830;12.082;2023-10-13T04:07:22;99213.19;;;19.05;53.61
11172;BME280;5642;50.830;12.082;2023-10-13T04:10:34;99208.19;;;19.00;53.58
11172;BME280;5642;50.830;12.082;2023-10-13T04:13:19;99245.25;;;19.14;53.51
11172;BME280;5642;50.830;12.082;2023-10-13T04:16:04;99237.19;;;19.16;53.62
11172;BME280;5642;50.830;12.082;2023-10-13T04:18:56;99212.88;;;19.09;53.75
11172;BME280;5642;50.830;12.082;2023-10-13T04:21:27;99223.06;;;19.15;53.79
11172;BME280;5642;50.830;12.082;2023-10-13T04:24:12;99207.03;;;19.17;53.58
11172;BME280;5642;50.830;12.082;2023-10-13T04:26:51;99228.59;;;19.25;53.67
11172;BME280;5642;50.830;12.082;2023-10-13T04:29:53;99214.06;;;19.18;53.74
11172;BME280;5642;50.830;12.082;2023-10-13T04:32:36;99219.66;;;19.26;53.72
11172;BME280;5642;50.830;12.082;2023-10-13T04:35:07;99197.78;;;19.23;53.42
11172;BME280;5642;50.830;12.082;2023-10-13T04:37:42;99202.88;;;19.26;53.63
11172;BME280;5642;50.830;12.082;2023-10-13T04:40:44;99207.66;;;19.21;53.79
11172;BME280;5642;50.830;12.082;2023-10-13T04:43:28;99154.19;;;18.89;53.75
11172;BME280;5642;50.830;12.082;2023-10-13T04:46:24;99196.09;;;19.09;53.89
11172;BME280;5642;50.830;12.082;2023-10-13T04:49:30;99202.34;;;19.21;53.82
11172;BME280;5642;50.830;12.082;2023-10-13T04:52:09;99215.31;;;19.25;53.87
11172;BME280;5642;50.830;12.082;2023-10-13T04:54:40;99226.97;;;19.35;53.84
11172;BME280;5642;50.830;12.082;2023-10-13T04:57:22;99199.41;;;19.25;53.97
11172;BME280;5642;50.830;12.082;2023-10-13T04:59:58;99216.16;;;19.38;53.82
11172;BME280;5642;50.830;12.082;2023-10-13T05:02:42;99197.25;;;19.30;53.67
11172;BME280;5642;50.830;12.082;2023-10-13T05:05:45;99210.19;;;19.35;54.11
11172;BME280;5642;50.830;12.082;2023-10-13T05:08:23;99217.00;;;19.39;53.96
11172;BME280;5642;50.830;12.082;2023-10-13T05:11:27;99219.53;;;19.40;54.06
11172;BME280;5642;50.830;12.082;2023-10-13T05:14:30;99200.53;;;19.34;54.11
11172;BME280;5642;50.830;12.082;2023-10-13T05:17:33;99212.53;;;19.39;53.95
11172;BME280;5642;50.830;12.082;2023-10-13T05:20:36;99214.13;;;19.42;54.03
11172;BME280;5642;50.830;12.082;2023-10-13T05:23:26;99209.56;;;19.44;54.07
11172;BME280;5642;50.830;12.082;2023-10-13T05:26:13;99210.09;;;19.49;53.96
11172;BME280;5642;50.830;12.082;2023-10-13T05:29:02;99195.41;;;19.43;53.91
11172;BME280;5642;50.830;12.082;2023-10-13T05:31:48;99185.66;;;19.44;54.06
11172;BME280;5642;50.830;12.082;2023-10-13T05:34:51;99195.53;;;19.54;53.92
11172;BME280;5642;50.830;12.082;2023-10-13T05:37:47;99184.50;;;19.48;54.05
11172;BME280;5642;50.830;12.082;2023-10-13T05:41:03;99196.06;;;19.60;54.10
11172;BME280;5642;50.830;12.082;2023-10-13T05:43:53;99198.38;;;19.64;53.97
11172;BME280;5642;50.830;12.082;2023-10-13T05:46:39;99185.31;;;19.61;54.03
11172;BME280;5642;50.830;12.082;2023-10-13T05:49:10;99174.28;;;19.54;54.33
11172;BME280;5642;50.830;12.082;2023-10-13T05:51:46;99155.06;;;19.51;53.90
11172;BME280;5642;50.830;12.082;2023-10-13T05:54:48;99184.44;;;19.73;54.07
11172;BME280;5642;50.830;12.082;2023-10-13T05:57:51;99180.19;;;19.71;54.18
11172;BME280;5642;50.830;12.082;2023-10-13T06:00:40;99180.59;;;19.77;53.93
11172;BME280;5642;50.830;12.082;2023-10-13T06:03:27;99191.41;;;19.87;54.13
11172;BME280;5642;50.830;12.082;2023-10-13T06:06:20;99205.72;;;19.97;53.89
11172;BME280;5642;50.830;12.082;2023-10-13T06:09:23;99170.88;;;19.89;54.01
11172;BME280;5642;50.830;12.082;2023-10-13T06:12:26;99203.63;;;20.13;53.72
11172;BME280;5642;50.830;12.082;2023-10-13T06:15:14;99186.06;;;20.11;53.86
11172;BME280;5642;50.830;12.082;2023-10-13T06:18:07;99199.09;;;20.26;53.80
11172;BME280;5642;50.830;12.082;2023-10-13T06:21:00;99182.63;;;20.21;53.76
11172;BME280;5642;50.830;12.082;2023-10-13T06:23:56;99203.94;;;20.32;53.78
11172;BME280;5642;50.830;12.082;2023-10-13T06:26:40;99141.06;;;19.97;53.67
11172;BME280;5642;50.830;12.082;2023-10-13T06:29:28;99203.88;;;20.34;53.64
11172;BME280;5642;50.830;12.082;2023-10-13T06:31:54;99197.13;;;20.41;53.68
11172;BME280;5642;50.830;12.082;2023-10-13T06:34:24;99191.91;;;20.40;54.02
11172;BME280;5642;50.830;12.082;2023-10-13T06:37:08;99157.25;;;20.17;53.68
11172;BME280;5642;50.830;12.082;2023-10-13T06:40:13;99197.63;;;20.46;53.84
11172;BME280;5642;50.830;12.082;2023-10-13T06:43:07;99190.38;;;20.48;53.92
11172;BME280;5642;50.830;12.082;2023-10-13T06:45:50;99171.88;;;20.47;53.75
11172;BME280;5642;50.830;12.082;2023-10-13T06:48:24;99180.00;;;20.56;53.82
11172;BME280;5642;50.830;12.082;2023-10-13T06:50:53;99163.81;;;20.59;53.57
11172;BME280;5642;50.830;12.082;2023-10-13T06:53:22;99184.31;;;20.81;53.87
11172;BME280;5642;50.830;12.082;2023-10-13T06:55:49;99186.13;;;20.92;53.48
11172;BME280;5642;50.830;12.082;2023-10-13T06:58:41;99176.22;;;20.94;53.39
11172;BME280;5642;50.830;12.082;2023-10-13T07:01:18;99164.72;;;21.04;53.47
11172;BME280;5642;50.830;12.082;2023-10-13T07:03:52;99171.22;;;21.24;53.44
11172;BME280;5642;50.830;12.082;2023-10-13T07:06:45;99145.16;;;21.28;53.28
11172;BME280;5642;50.830;12.082;2023-10-13T07:09:18;99176.47;;;21.69;53.43
11172;BME280;5642;50.830;12.082;2023-10-13T07:12:14;99167.69;;;21.89;53.31
11172;BME280;5642;50.830;12.082;2023-10-13T07:14:48;99170.44;;;22.10;53.24
11172;BME280;5642;50.830;12.082;2023-10-13T07:17:19;99169.19;;;22.25;53.13
11172;BME280;5642;50.830;12.082;2023-10-13T07:19:55;99173.53;;;22.37;53.02
11172;BME280;5642;50.830;12.082;2023-10-13T07:22:33;99116.69;;;22.25;52.71
11172;BME280;5642;50.830;12.082;2023-10-13T07:25:24;99163.38;;;22.73;52.78
11172;BME280;5642;50.830;12.082;2023-10-13T07:28:22;99155.63;;;22.90;52.61
11172;BME280;5642;50.830;12.082;2023-10-13T07:30:48;99131.25;;;23.04;52.64
11172;BME280;5642;50.830;12.082;2023-10-13T07:33:35;99119.84;;;23.02;52.47
11172;BME280;5642;50.830;12.082;2023-10-13T07:36:06;99156.97;;;23.36;52.62
11172;BME280;5642;50.830;12.082;2023-10-13T07:39:11;99156.03;;;23.47;52.58
11172;BME280;5642;50.830;12.082;2023-10-13T07:41:57;99154.97;;;23.59;52.58
11172;BME280;5642;50.830;12.082;2023-10-13T07:45:02;99132.09;;;23.45;52.63
11172;BME280;5642;50.830;12.082;2023-10-13T07:47:37;99135.78;;;23.44;52.32
11172;BME280;5642;50.830;12.082;2023-10-13T07:50:09;99063.00;;;22.91;52.67
11172;BME280;5642;50.830;12.082;2023-10-13T07:52:53;99146.97;;;23.28;52.60
11172;BME280;5642;50.830;12.082;2023-10-13T07:55:50;99134.56;;;23.27;52.70
11172;BME280;5642;50.830;12.082;2023-10-13T07:58:40;99139.97;;;23.37;52.65
11172;BME280;5642;50.830;12.082;2023-10-13T08:01:20;99114.78;;;23.39;52.58
11172;BME280;5642;50.830;12.082;2023-10-13T08:03:52;99122.44;;;23.54;52.45
11172;BME280;5642;50.830;12.082;2023-10-13T08:06:37;99114.28;;;23.55;52.42
11172;BME280;5642;50.830;12.082;2023-10-13T08:09:24;99103.47;;;23.57;52.63
11172;BME280;5642;50.830;12.082;2023-10-13T08:12:25;99107.56;;;23.70;52.03
11172;BME280;5642;50.830;12.082;2023-10-13T08:14:53;99117.72;;;23.86;51.96
11172;BME280;5642;50.830;12.082;2023-10-13T08:17:44;99082.78;;;23.68;51.71
11172;BME280;5642;50.830;12.082;2023-10-13T08:20:25;99114.50;;;23.92;51.82
11172;BME280;5642;50.830;12.082;2023-10-13T08:23:13;99095.34;;;23.77;51.72
11172;BME280;5642;50.830;12.082;2023-10-13T08:25:41;99068.41;;;23.60;52.04
11172;BME280;5642;50.830;12.082;2023-10-13T08:28:31;99099.56;;;23.80;51.81
11172;BME280;5642;50.830;12.082;2023-10-13T08:31:07;99111.53;;;23.86;51.81
11172;BME280;5642;50.830;12.082;2023-10-13T08:33:50;99064.47;;;23.54;51.76
11172;BME280;5642;50.830;12.082;2023-10-13T08:36:16;99120.66;;;23.73;52.12
11172;BME280;5642;50.830;12.082;2023-10-13T08:39:04;99116.97;;;23.55;51.87
11172;BME280;5642;50.830;12.082;2023-10-13T08:41:51;99128.94;;;23.61;52.18
11172;BME280;5642;50.830;12.082;2023-10-13T08:44:44;99119.81;;;23.63;52.29
11172;BME280;5642;50.830;12.082;2023-10-13T08:47:21;99111.34;;;23.68;51.97
11172;BME280;5642;50.830;12.082;2023-10-13T08:50:08;99050.50;;;23.41;52.02
11172;BME280;5642;50.830;12.082;2023-10-13T08:53:02;99111.50;;;23.76;51.78
11172;BME280;5642;50.830;12.082;2023-10-13T08:55:35;99039.94;;;23.39;51.88
11172;BME280;5642;50.830;12.082;2023-10-13T08:58:15;99128.44;;;23.86;51.77
11172;BME280;5642;50.830;12.082;2023-10-13T09:00:46;99117.16;;;23.83;51.90
11172;BME280;5642;50.830;12.082;2023-10-13T09:03:24;99092.06;;;23.55;51.99
11172;BME280;5642;50.830;12.082;2023-10-13T09:06:12;99118.41;;;23.69;51.67
11172;BME280;5642;50.830;12.082;2023-10-13T09:09:06;99125.88;;;23.65;52.13
11172;BME280;5642;50.830;12.082;2023-10-13T09:11:51;99107.53;;;23.61;51.96
11172;BME280;5642;50.830;12.082;2023-10-13T09:14:56;99104.06;;;23.70;52.04
11172;BME280;5642;50.830;12.082;2023-10-13T09:17:29;99106.75;;;23.79;52.02
11172;BME280;5642;50.830;12.082;2023-10-13T09:20:05;99103.66;;;23.84;51.58
11172;BME280;5642;50.830;12.082;2023-10-13T09:22:58;99100.00;;;23.85;52.05
11172;BME280;5642;50.830;12.082;2023-10-13T09:25:30;99093.50;;;23.97;51.74
11172;BME280;5642;50.830;12.082;2023-10-13T09:28:22;99100.69;;;24.06;51.56
11172;BME280;5642;50.830;12.082;2023-10-13T09:31:22;99063.81;;;23.91;51.51
11172;BME280;5642;50.830;12.082;2023-10-13T09:33:53;99095.75;;;24.11;51.63
11172;BME280;5642;50.830;12.082;2023-10-13T09:36:51;99074.22;;;24.03;51.96
11172;BME280;5642;50.830;12.082;2023-10-13T09:39:24;99099.69;;;24.17;51.28
11172;BME280;5642;50.830;12.082;2023-10-13T09:42:12;99042.28;;;23.92;51.68
11172;BME280;5642;50.830;12.082;2023-10-13T09:44:57;99099.59;;;24.28;51.77
11172;BME280;5642;50.830;12.082;2023-10-13T09:47:30;99046.75;;;24.11;51.51
11172;BME280;5642;50.830;12.082;2023-10-13T09:50:04;99078.28;;;24.46;51.44
11172;BME280;5642;50.830;12.082;2023-10-13T09:52:40;99044.31;;;24.46;51.20
11172;BME280;5642;50.830;12.082;2023-10-13T09:55:21;99074.81;;;24.82;50.85
11172;BME280;5642;50.830;12.082;2023-10-13T09:57:56;99057.28;;;24.98;50.97
11172;BME280;5642;50.830;12.082;2023-10-13T10:00:31;99076.69;;;25.36;50.87
11172;BME280;5642;50.830;12.082;2023-10-13T10:03:26;99055.75;;;25.50;51.05
11172;BME280;5642;50.830;12.082;2023-10-13T10:06:07;99058.41;;;25.77;50.58
11172;BME280;5642;50.830;12.082;2023-10-13T10:08:43;99065.59;;;25.94;50.71
11172;BME280;5642;50.830;12.082;2023-10-13T10:14:19;99040.84;;;26.00;50.50
11172;BME280;5642;50.830;12.082;2023-10-13T10:17:08;99065.06;;;26.26;50.53
11172;BME280;5642;50.830;12.082;2023-10-13T10:19:53;99061.06;;;26.30;50.07
11172;BME280;5642;50.830;12.082;2023-10-13T10:22:31;99057.75;;;26.36;50.24
11172;BME280;5642;50.830;12.082;2023-10-13T10:25:41;99044.69;;;26.24;50.14
11172;BME280;5642;50.830;12.082;2023-10-13T10:28:10;99033.84;;;26.25;50.18
11172;BME280;5642;50.830;12.082;2023-10-13T10:30:41;99047.63;;;26.30;49.98
11172;BME280;5642;50.830;12.082;2023-10-13T10:33:11;99047.38;;;26.24;50.00
11172;BME280;5642;50.830;12.082;2023-10-13T10:35:45;99045.31;;;26.18;50.02
11172;BME280;5642;50.830;12.082;2023-10-13T10:38:18;99045.25;;;26.09;50.09
11172;BME280;5642;50.830;12.082;2023-10-13T10:41:06;99045.03;;;26.03;49.96
11172;BME280;5642;50.830;12.082;2023-10-13T10:46:15;99000.03;;;25.79;49.77
11172;BME280;5642;50.830;12.082;2023-10-13T10:48:45;99036.91;;;26.12;49.92
11172;BME280;5642;50.830;12.082;2023-10-13T10:51:32;99031.22;;;26.16;49.65
11172;BME280;5642;50.830;12.082;2023-10-13T10:54:00;99013.88;;;26.10;49.69
11172;BME280;5642;50.830;12.082;2023-10-13T10:56:48;99019.88;;;26.22;49.49
11172;BME280;5642;50.830;12.082;2023-10-13T10:59:39;99017.78;;;26.16;49.41
11172;BME280;5642;50.830;12.082;2023-10-13T11:02:07;99019.31;;;26.18;49.28
11172;BME280;5642;50.830;12.082;2023-10-13T11:04:41;99016.50;;;26.20;49.34
11172;BME280;5642;50.830;12.082;2023-10-13T11:07:27;99012.63;;;26.22;49.30
11172;BME280;5642;50.830;12.082;2023-10-13T11:10:08;98988.91;;;26.27;49.21
11172;BME280;5642;50.830;12.082;2023-10-13T11:13:01;98962.44;;;26.15;49.21
11172;BME280;5642;50.830;12.082;2023-10-13T11:16:05;98961.47;;;26.24;49.07
11172;BME280;5642;50.830;12.082;2023-10-13T11:18:35;98982.78;;;26.43;49.02
11172;BME280;5642;50.830;12.082;2023-10-13T11:21:16;98968.66;;;26.41;48.97
11172;BME280;5642;50.830;12.082;2023-10-13T11:23:55;98977.16;;;26.62;48.90
11172;BME280;5642;50.830;12.082;2023-10-13T11:26:34;98974.88;;;26.75;49.09
11172;BME280;5642;50.830;12.082;2023-10-13T11:29:16;98968.81;;;26.99;49.36
11172;BME280;5642;50.830;12.082;2023-10-13T11:31:48;98958.47;;;27.45;49.53
11172;BME280;5642;50.830;12.082;2023-10-13T11:34:38;98947.72;;;28.10;49.68
11172;BME280;5642;50.830;12.082;2023-10-13T11:37:09;98890.34;;;28.25;49.05
11172;BME280;5642;50.830;12.082;2023-10-13T11:39:55;98937.88;;;29.04;49.14
11172;BME280;5642;50.830;12.082;2023-10-13T11:56:08;98855.75;;;30.34;42.08
11172;BME280;5642;50.830;12.082;2023-10-13T11:58:41;98897.34;;;30.18;43.21
11172;BME280;5642;50.830;12.082;2023-10-13T12:01:25;98853.34;;;29.57;44.09
11172;BME280;5642;50.830;12.082;2023-10-13T12:04:14;98906.41;;;29.65;44.37
11172;BME280;5642;50.830;12.082;2023-10-13T12:07:08;98892.66;;;29.37;44.77
11172;BME280;5642;50.830;12.082;2023-10-13T12:09:46;98884.06;;;29.34;44.43
11172;BME280;5642;50.830;12.082;2023-10-13T12:12:41;98888.00;;;29.23;44.77
11172;BME280;5642;50.830;12.082;2023-10-13T12:15:27;98880.09;;;29.21;44.82
11172;BME280;5642;50.830;12.082;2023-10-13T12:18:15;98856.13;;;29.04;45.06
11172;BME280;5642;50.830;12.082;2023-10-13T12:21:09;98850.00;;;29.10;45.25
11172;BME280;5642;50.830;12.082;2023-10-13T12:24:09;98862.78;;;29.16;44.83
11172;BME280;5642;50.830;12.082;2023-10-13T12:26:50;98873.63;;;29.08;44.80
11172;BME280;5642;50.830;12.082;2023-10-13T12:29:24;98885.63;;;29.05;44.42
11172;BME280;5642;50.830;12.082;2023-10-13T12:31:58;98878.75;;;28.95;44.51
11172;BME280;5642;50.830;12.082;2023-10-13T12:34:36;98863.72;;;28.69;44.48
11172;BME280;5642;50.830;12.082;2023-10-13T12:37:39;98862.63;;;28.56;44.59
11172;BME280;5642;50.830;12.082;2023-10-13T12:40:18;98870.69;;;28.56;44.50
11172;BME280;5642;50.830;12.082;2023-10-13T12:43:31;98854.63;;;28.31;44.72
11172;BME280;5642;50.830;12.082;2023-10-13T12:46:21;98863.75;;;28.22;44.77
11172;BME280;5642;50.830;12.082;2023-10-13T12:49:06;98864.59;;;28.15;44.89
11172;BME280;5642;50.830;12.082;2023-10-13T12:51:55;98805.84;;;27.63;44.63
11172;BME280;5642;50.830;12.082;2023-10-13T12:54:35;98858.75;;;27.87;45.03
11172;BME280;5642;50.830;12.082;2023-10-13T12:57:07;98846.69;;;27.75;44.75
11172;BME280;5642;50.830;12.082;2023-10-13T12:59:36;98843.16;;;27.66;44.78
11172;BME280;5642;50.830;12.082;2023-10-13T13:02:09;98851.06;;;27.67;44.89
11172;BME280;5642;50.830;12.082;2023-10-13T13:05:06;98807.00;;;27.36;44.64
11172;BME280;5642;50.830;12.082;2023-10-13T13:07:42;98841.13;;;27.52;44.61
11172;BME280;5642;50.830;12.082;2023-10-13T13:10:18;98844.81;;;27.51;44.71
11172;BME280;5642;50.830;12.082;2023-10-13T13:12:45;98842.66;;;27.46;44.60
11172;BME280;5642;50.830;12.082;2023-10-13T13:15:11;98824.50;;;27.40;44.38
11172;BME280;5642;50.830;12.082;2023-10-13T13:17:38;98839.63;;;27.41;44.51
11172;BME280;5642;50.830;12.082;2023-10-13T13:20:23;98826.19;;;27.33;44.68
11172;BME280;5642;50.830;12.082;2023-10-13T13:23:11;98830.19;;;27.29;44.89
11172;BME280;5642;50.830;12.082;2023-10-13T13:25:56;98801.81;;;27.18;44.61
11172;BME280;5642;50.830;12.082;2023-10-13T13:28:41;98791.38;;;27.07;44.69
11172;BME280;5642;50.830;12.082;2023-10-13T13:31:11;98809.56;;;27.13;44.63
11172;BME280;5642;50.830;12.082;2023-10-13T13:33:38;98801.13;;;27.08;44.47
11172;BME280;5642;50.830;12.082;2023-10-13T13:36:11;98814.41;;;27.10;44.71
11172;BME280;5642;50.830;12.082;2023-10-13T13:39:24;98803.50;;;27.03;44.74
11172;BME280;5642;50.830;12.082;2023-10-13T13:41:57;98798.94;;;26.96;44.95
11172;BME280;5642;50.830;12.082;2023-10-13T13:44:30;98810.03;;;27.01;44.63
11172;BME280;5642;50.830;12.082;2023-10-13T13:47:10;98800.31;;;27.00;44.65
11172;BME280;5642;50.830;12.082;2023-10-13T13:49:41;98793.91;;;27.01;44.56
11172;BME280;5642;50.830;12.082;2023-10-13T13:52:37;98796.09;;;26.97;44.54
11172;BME280;5642;50.830;12.082;2023-10-13T13:55:12;98771.03;;;26.88;44.63
11172;BME280;5642;50.830;12.082;2023-10-13T13:57:43;98758.31;;;26.91;44.57
11172;BME280;5642;50.830;12.082;2023-10-13T14:00:28;98762.28;;;26.86;44.23
11172;BME280;5642;50.830;12.082;2023-10-13T14:03:10;98770.53;;;26.93;44.13
11172;BME280;5642;50.830;12.082;2023-10-13T14:06:00;98788.53;;;27.09;44.31
11172;BME280;5642;50.830;12.082;2023-10-13T14:08:49;98766.38;;;26.99;44.30
11172;BME280;5642;50.830;12.082;2023-10-13T14:11:37;98777.94;;;27.15;43.90
11172;BME280;5642;50.830;12.082;2023-10-13T14:14:09;98775.09;;;27.25;43.82
11172;BME280;5642;50.830;12.082;2023-10-13T14:16:45;98768.53;;;27.27;43.83
11172;BME280;5642;50.830;12.082;2023-10-13T14:19:13;98727.06;;;27.06;43.43
11172;BME280;5642;50.830;12.082;2023-10-13T14:21:56;98765.81;;;27.36;44.01
11172;BME280;5642;50.830;12.082;2023-10-13T14:24:30;98764.63;;;27.46;43.56
11172;BME280;5642;50.830;12.082;2023-10-13T14:27:03;98756.06;;;27.43;43.69
11172;BME280;5642;50.830;12.082;2023-10-13T14:29:44;98723.69;;;27.28;43.36
11172;BME280;5642;50.830;12.082;2023-10-13T14:32:36;98776.09;;;27.56;43.31